Weather History for Prairie Du Chien, WI

Change the Weather History Date:

Sunday, February 10, 2013

  Actual Average Record
Temperature  
Mean Temperature 36 °F -  
Max Temperature 42 °F 31 °F 54 °F (2009)
Min Temperature 30 °F 12 °F -18 °F (1982)
Degree Days  
Heating Degree Days 29    
Moisture  
Dew Point 33 °F    
Average Humidity 90    
Maximum Humidity 100    
Minimum Humidity 76    
Precipitation  
Precipitation 0.47 in - - ()
Sea Level Pressure  
Sea Level Pressure 29.57 in    
Wind  
Wind Speed 9 mph (SE)    
Max Wind Speed 21 mph    
Max Gust Speed 30 mph    
Visibility 5 miles    
Events Rain , Snow    
Averages and records for this station are not official NWS values.
T = Trace of Precipitation, MM = Missing Value Source: NWS Daily Summary

Daily Weather History Graph

Daily Weather History Graph

Search for Another Location

Airport:

Trip Planner

Search our weather history database for the weather conditions in past years. The results will help you decide how hot, cold, wet, or windy it might be!

Date:

Astronomy

Feb. 10, 2013 Rise Set
Actual Time 7:08 AM CST 5:29 PM CST
Civil Twilight 6:39 AM CST 5:59 PM CST
Nautical Twilight 6:05 AM CST 6:32 PM CST
Astronomical Twilight 5:32 AM CST 7:05 PM CST
Moon 6:56 AM CST (2/10) 6:23 PM CST (2/10)
Length of Visible Light 11h 19m
Length of Day
10h 21m
New Moon, 0% of the Moon is Illuminated
Feb 10
New Moon
Feb 17
First Quarter
Feb 25
Full
Mar 4
Last Quarter
Mar 11
New

Hourly Weather History & Observations

Time (CST) Temp. Windchill Dew Point Humidity Pressure Visibility Wind Dir Wind Speed Gust Speed Precip Events Conditions
12:15 AM 30.2 °F 21.9 °F 26.6 °F 86% 29.99 in 7.0 mi ESE 9.2 mph - N/A   Overcast
12:35 AM 30.2 °F 23.4 °F 26.6 °F 86% 29.99 in 7.0 mi ESE 6.9 mph - N/A   Overcast
12:55 AM 30.2 °F 23.4 °F 26.6 °F 86% 29.99 in 7.0 mi ESE 6.9 mph - N/A   Overcast
1:15 AM 30.2 °F 23.4 °F 26.6 °F 86% 29.98 in 7.0 mi ESE 6.9 mph - N/A   Overcast
1:35 AM 30.2 °F 24.3 °F 26.6 °F 86% 29.96 in 7.0 mi East 5.8 mph - N/A   Overcast
1:55 AM 30.2 °F 23.4 °F 26.6 °F 86% 29.96 in 7.0 mi ESE 6.9 mph - N/A   Overcast
2:35 AM 30.2 °F 21.9 °F 26.6 °F 86% 29.92 in 7.0 mi East 9.2 mph - N/A   Overcast
2:55 AM 30.2 °F 22.6 °F 26.6 °F 86% 29.92 in 7.0 mi ESE 8.1 mph - N/A   Overcast
3:15 AM 30.2 °F 24.3 °F 26.6 °F 86% 29.90 in 7.0 mi ESE 5.8 mph - N/A   Overcast
3:35 AM 30.2 °F 23.4 °F 26.6 °F 86% 29.90 in 7.0 mi ESE 6.9 mph - N/A   Overcast
3:55 AM 30.2 °F 24.3 °F 26.6 °F 86% 29.89 in 5.0 mi ESE 5.8 mph - N/A   Overcast
4:15 AM 30.2 °F 22.6 °F 28.4 °F 93% 29.88 in 5.0 mi ESE 8.1 mph - N/A   Overcast
4:35 AM 32.0 °F 26.4 °F 28.4 °F 87% 29.86 in 4.0 mi East 5.8 mph - N/A   Overcast
4:55 AM 32.0 °F 25.6 °F 28.4 °F 87% 29.86 in 5.0 mi ESE 6.9 mph - N/A   Overcast
5:15 AM 32.0 °F 24.2 °F 28.4 °F 87% 29.85 in 5.0 mi ESE 9.2 mph - N/A   Overcast
5:35 AM 32.0 °F 24.8 °F 28.4 °F 87% 29.83 in 5.0 mi ESE 8.1 mph - N/A   Overcast
5:55 AM 32.0 °F 24.8 °F 30.2 °F 93% 29.80 in 5.0 mi East 8.1 mph - N/A   Overcast
6:15 AM 32.0 °F 24.2 °F 30.2 °F 93% 29.78 in 5.0 mi ESE 9.2 mph - N/A   Overcast
6:35 AM 32.0 °F 23.6 °F 30.2 °F 93% 29.75 in 5.0 mi East 10.4 mph - N/A   Overcast
6:55 AM 32.0 °F 22.1 °F 30.2 °F 93% 29.71 in 5.0 mi East 13.8 mph 18.4 mph N/A   Overcast
7:15 AM 33.8 °F 25.3 °F 32.0 °F 93% 29.71 in 5.0 mi ESE 11.5 mph 17.3 mph N/A   Overcast
7:35 AM 33.8 °F 26.4 °F 32.0 °F 93% 29.71 in 5.0 mi ESE 9.2 mph 17.3 mph 0.01 in   Overcast
7:55 AM 33.8 °F 27.0 °F 32.0 °F 93% 29.73 in 5.0 mi SE 8.1 mph - 0.01 in   Overcast
8:15 AM 33.8 °F 24.8 °F 32.0 °F 93% 29.69 in 4.0 mi East 12.7 mph - N/A   Overcast
8:35 AM 33.8 °F 27.0 °F 32.0 °F 93% 29.72 in 1.2 mi ESE 8.1 mph - N/A   Drizzle
8:55 AM 33.8 °F 25.8 °F 32.0 °F 93% 29.69 in 1.0 mi East 10.4 mph - 0.01 in   Drizzle
9:15 AM 35.6 °F 27.5 °F 33.8 °F 93% 29.64 in 1.5 mi East 11.5 mph - N/A   Overcast
9:35 AM 35.6 °F 29.2 °F 33.8 °F 93% 29.65 in 2.0 mi ESE 8.1 mph - 0.01 in Rain Light Rain
9:55 AM 35.6 °F 28.0 °F 33.8 °F 93% 29.63 in 1.2 mi East 10.4 mph - 0.07 in Rain Rain
10:15 AM 35.6 °F 27.5 °F 33.8 °F 93% 29.60 in 2.0 mi ESE 11.5 mph - 0.07 in Rain Rain
10:35 AM 35.6 °F 27.1 °F 33.8 °F 93% 29.58 in 3.0 mi East 12.7 mph 18.4 mph 0.12 in Rain Rain
10:55 AM 35.6 °F 27.5 °F 33.8 °F 93% 29.55 in 5.0 mi ESE 11.5 mph 18.4 mph 0.15 in Rain Light Rain
11:15 AM 35.6 °F 25.5 °F 33.8 °F 93% 29.51 in 2.0 mi ESE 17.3 mph 21.9 mph 0.03 in Snow Light Snow
11:35 AM 37.4 °F 28.5 °F 33.8 °F 87% 29.49 in 3.0 mi ESE 15.0 mph 24.2 mph 0.07 in   Overcast
11:55 AM 37.4 °F 29.3 °F 33.8 °F 87% 29.49 in 2.0 mi ESE 12.7 mph 20.7 mph 0.10 in Rain Rain
12:15 PM 37.4 °F 29.8 °F 35.6 °F 93% 29.48 in 1.5 mi ESE 11.5 mph 18.4 mph 0.04 in Rain Light Rain
12:35 PM 37.4 °F 30.3 °F 35.6 °F 93% 29.47 in 1.8 mi ESE 10.4 mph 17.3 mph 0.07 in Rain Rain
12:55 PM 37.4 °F 30.8 °F 35.6 °F 93% 29.45 in 3.0 mi ESE 9.2 mph - 0.09 in Rain Light Rain
1:15 PM 37.4 °F 30.8 °F 35.6 °F 93% 29.44 in 2.0 mi ESE 9.2 mph - N/A   Overcast
1:35 PM 37.4 °F 30.3 °F 35.6 °F 93% 29.42 in 3.0 mi ESE 10.4 mph - N/A   Overcast
1:55 PM 37.4 °F 30.8 °F 35.6 °F 93% 29.41 in 10.0 mi ESE 9.2 mph - N/A   Overcast
2:15 PM 37.4 °F 30.8 °F 35.6 °F 93% 29.39 in 7.0 mi ESE 9.2 mph - N/A   Overcast
2:35 PM 37.4 °F 30.8 °F 35.6 °F 93% 29.38 in 5.0 mi ESE 9.2 mph - N/A   Overcast
2:55 PM 39.2 °F 33.0 °F 37.4 °F 93% 29.37 in 7.0 mi ESE 9.2 mph - N/A   Overcast
3:15 PM 39.2 °F 35.0 °F 37.4 °F 93% 29.38 in 7.0 mi ESE 5.8 mph - N/A   Overcast
3:35 PM 39.2 °F 35.0 °F 37.4 °F 93% 29.37 in 7.0 mi ESE 5.8 mph - N/A   Overcast
3:55 PM 39.2 °F 35.0 °F 37.4 °F 93% 29.36 in 5.0 mi ESE 5.8 mph - N/A   Overcast
4:15 PM 39.2 °F 35.9 °F 37.4 °F 93% 29.35 in 4.0 mi East 4.6 mph - N/A   Overcast
4:35 PM 39.2 °F 32.5 °F 37.4 °F 93% 29.34 in 2.5 mi ESE 10.4 mph - N/A   Overcast
4:55 PM 39.2 °F 32.5 °F 37.4 °F 93% 29.33 in 2.0 mi ESE 10.4 mph - N/A   Overcast
5:15 PM 39.2 °F 33.0 °F 37.4 °F 93% 29.31 in 3.0 mi ESE 9.2 mph - N/A   Overcast
5:35 PM 39.2 °F 33.0 °F 39.2 °F 100% 29.31 in 4.0 mi ESE 9.2 mph - N/A   Overcast
5:55 PM 41.0 °F 35.2 °F 39.2 °F 93% 29.31 in 5.0 mi SE 9.2 mph 17.3 mph N/A   Overcast
6:15 PM 41.0 °F 36.4 °F 39.2 °F 93% 29.34 in 7.0 mi SSW 6.9 mph - N/A Rain Light Rain
6:35 PM 42.8 °F 39.3 °F 41.0 °F 93% 29.33 in 10.0 mi South 5.8 mph - 0.01 in   Overcast
6:55 PM 42.8 °F 40.1 °F 39.2 °F 87% 29.34 in 10.0 mi SSW 4.6 mph - 0.01 in   Overcast
7:15 PM 42.8 °F 34.0 °F 35.6 °F 76% 29.35 in 10.0 mi SW 20.7 mph 27.6 mph N/A   Drizzle
7:35 PM 41.0 °F 34.3 °F 35.6 °F 81% 29.35 in 10.0 mi SW 11.5 mph 19.6 mph N/A   Drizzle
7:55 PM 39.2 °F 32.5 °F 33.8 °F 81% 29.35 in 10.0 mi SSW 10.4 mph 19.6 mph 0.01 in   Light Drizzle
8:15 PM 39.2 °F 34.2 °F 33.8 °F 81% 29.35 in 10.0 mi SSW 6.9 mph - N/A Rain Light Rain
8:35 PM 39.2 °F 30.5 °F 33.8 °F 81% 29.35 in 10.0 mi SSW 16.1 mph 23.0 mph N/A Rain Rain
8:55 PM 37.4 °F 29.3 °F 33.8 °F 87% 29.36 in 10.0 mi SSW 12.7 mph 18.4 mph N/A   Light Drizzle
9:15 PM 37.4 °F 27.8 °F 33.8 °F 87% 29.35 in 10.0 mi South 17.3 mph 23.0 mph N/A   Overcast
9:35 PM 37.4 °F 28.5 °F 33.8 °F 87% 29.35 in 10.0 mi SSW 15.0 mph 24.2 mph N/A   Overcast
9:55 PM 35.6 °F 27.1 °F 33.8 °F 93% 29.35 in 4.0 mi SSW 12.7 mph 17.3 mph N/A   Overcast
10:15 PM 35.6 °F 27.1 °F 33.8 °F 93% 29.35 in 7.0 mi SSW 12.7 mph 21.9 mph N/A   Light Drizzle
10:35 PM 35.6 °F 27.5 °F 33.8 °F 93% 29.35 in 3.0 mi SSW 11.5 mph 16.1 mph N/A   Light Drizzle
10:55 PM 35.6 °F 27.1 °F 33.8 °F 93% 29.35 in 5.0 mi SSW 12.7 mph 17.3 mph 0.01 in Rain Light Rain
11:15 PM 35.6 °F 27.5 °F 32.0 °F 87% 29.36 in 5.0 mi SSW 11.5 mph 23.0 mph N/A Rain Rain
11:35 PM 33.8 °F 23.5 °F 32.0 °F 93% 29.37 in 5.0 mi SW 16.1 mph 27.6 mph 0.01 in Snow Light Snow
11:55 PM 33.8 °F 22.5 °F 30.2 °F 87% 29.36 in 2.5 mi SSW 19.6 mph 29.9 mph 0.01 in Snow Light Snow